Data for 12/15/2014

Time Sea-Level Adjusted Pressure Absolute Pressure Temperature Relative Humidity Dew Point   
(mb) (inHg) (mb) (inHg) (C) (F) (%) (C) (F)
00:05 1023 30.21 852 25.16 -4.5 23.9 93 -5.5 22.1
00:10 1023 30.21 852 25.16 -4.5 23.9 93 -5.5 22.1
00:15 1023 30.21 852 25.16 -4.5 23.8 93 -5.5 22
00:20 1023 30.21 852 25.16 -4.6 23.7 93 -5.6 22
00:25 1023 30.21 852 25.16 -4.6 23.7 93 -5.6 22
00:30 1023 30.21 852 25.16 -4.6 23.7 93 -5.6 21.9
00:35 1023 30.21 852 25.16 -4.6 23.7 93 -5.6 21.9
00:40 1023 30.21 852 25.16 -4.6 23.7 93 -5.6 21.9
00:45 1023 30.21 852 25.16 -4.7 23.6 93 -5.7 21.8
00:50 1023 30.21 852 25.16 -4.6 23.7 93 -5.6 21.9
00:55 1023 30.21 852 25.16 -4.7 23.6 93 -5.7 21.8
01:00 1023 30.21 852 25.16 -4.7 23.6 93 -5.6 21.8
01:05 1023 30.21 852 25.16 -4.6 23.7 93 -5.6 21.9
01:10 1023 30.21 852 25.16 -4.6 23.6 93 -5.7 21.8
01:15 1023 30.21 852 25.16 -4.7 23.6 93 -5.7 21.8
01:20 1023 30.21 852 25.16 -4.7 23.6 93 -5.7 21.7
01:25 1023 30.21 852 25.16 -4.7 23.6 93 -5.7 21.7
01:30 1023 30.21 852 25.16 -4.7 23.6 93 -5.7 21.8
01:35 1023 30.21 852 25.16 -4.7 23.6 93 -5.7 21.8
01:40 1023 30.21 852 25.16 -4.7 23.5 92 -5.8 21.6
01:45 1023 30.21 852 25.16 -4.8 23.3 93 -5.8 21.5
01:50 1023 30.21 852 25.16 -4.9 23.2 93 -5.9 21.4
01:55 1023 30.21 852 25.16 -5 23 93 -6 21.3
02:00 1023 30.21 852 25.16 -5.1 22.8 93 -6.1 21
02:05 1023 30.21 852 25.16 -5.2 22.7 93 -6.2 20.9
02:10 1023 30.21 852 25.16 -5.2 22.6 93 -6.2 20.8
02:15 1023 30.21 852 25.16 -5.2 22.7 93 -6.2 20.9
02:20 1023 30.21 852 25.16 -5.2 22.7 92 -6.2 20.8
02:25 1023 30.21 852 25.16 -5.2 22.6 93 -6.3 20.7
02:30 1023 30.21 852 25.16 -5.2 22.6 93 -6.2 20.8
02:35 1023 30.21 852 25.16 -5.3 22.5 93 -6.3 20.7
02:40 1023 30.21 852 25.16 -5.2 22.6 93 -6.2 20.8
02:45 1023 30.21 852 25.16 -5.2 22.6 93 -6.2 20.8
02:50 1023 30.21 852 25.16 -5.3 22.5 93 -6.3 20.7
02:55 1023 30.21 852 25.16 -5.2 22.6 93 -6.3 20.7
03:00 1023 30.21 852 25.16 -5.2 22.6 92 -6.3 20.7
03:05 1023 30.21 852 25.16 -5.3 22.6 93 -6.3 20.7
03:10 1023 30.21 852 25.16 -5.3 22.5 92 -6.4 20.5
03:15 1023 30.21 852 25.16 -5.4 22.2 92 -6.5 20.2
03:20 1023 30.21 852 25.16 -5.5 22.1 92 -6.6 20.1
03:25 1023 30.21 852 25.16 -5.6 22 92 -6.7 20
03:30 1023 30.21 852 25.16 -5.6 21.9 92 -6.7 19.9
03:35 1023 30.21 852 25.16 -5.7 21.8 92 -6.7 19.9
03:40 1023 30.21 852 25.16 -5.6 21.9 92 -6.7 19.9
03:45 1023 30.21 852 25.16 -5.6 21.9 93 -6.7 20
03:50 1023 30.21 852 25.16 -5.6 22 92 -6.6 20
03:55 1023 30.21 852 25.16 -5.6 22 92 -6.7 19.9
04:00 1023 30.21 852 25.16 -5.7 21.8 92 -6.8 19.8
04:05 1023 30.21 852 25.16 -5.7 21.7 92 -6.8 19.7
04:10 1023 30.21 852 25.16 -5.8 21.6 92 -6.9 19.5
04:15 1023 30.21 852 25.16 -5.8 21.5 92 -7 19.4
04:20 1023 30.21 852 25.16 -5.9 21.4 91 -7.1 19.3
04:25 1023 30.21 852 25.16 -5.9 21.3 91 -7.1 19.1
04:30 1023 30.21 852 25.16 -6 21.2 91 -7.3 18.9
04:35 1023 30.21 852 25.16 -6.2 20.8 90 -7.6 18.4
04:40 1023 30.21 852 25.16 -6.4 20.4 91 -7.7 18.1
04:45 1023 30.21 852 25.16 -6.6 20.1 90 -8 17.6
04:50 1023 30.21 852 25.16 -6.9 19.6 89 -8.4 16.9
04:55 1023 30.21 852 25.16 -7.3 18.9 90 -8.7 16.4
05:00 1023 30.21 852 25.16 -7.3 18.8 91 -8.6 16.5
05:05 1023 30.21 852 25.16 -7.2 19 90 -8.6 16.5
05:10 1023 30.21 852 25.16 -7.4 18.7 89 -8.8 16.1
05:15 1023 30.21 852 25.16 -7.5 18.5 89 -9 15.8
05:20 1023 30.21 852 25.16 -7.5 18.6 90 -8.9 16
05:25 1023 30.21 852 25.16 -7.4 18.7 89 -8.9 15.9
05:30 1023 30.21 852 25.16 -7.5 18.5 89 -9 15.8
05:35 1023 30.21 852 25.16 -7.6 18.4 90 -8.9 16
05:40 1023 30.21 852 25.16 -7.5 18.6 90 -8.9 16
05:45 1023 30.21 852 25.16 -7.6 18.3 89 -9.2 15.5
05:50 1023 30.21 852 25.16 -7.8 18 89 -9.3 15.2
05:55 1023 30.21 852 25.16 -7.9 17.8 89 -9.4 15.1
06:00 1023 30.21 852 25.16 -7.8 18.1 89 -9.2 15.4
06:05 1023 30.21 852 25.16 -7.5 18.5 90 -8.9 15.9
06:10 1023 30.21 852 25.16 -7.3 18.9 89 -8.8 16.2
06:15 1023 30.21 852 25.16 -7.1 19.3 88 -8.7 16.4
06:20 1023 30.21 852 25.16 -6.8 19.8 88 -8.5 16.7
06:25 1023 30.21 852 25.16 -6.6 20.1 88 -8.3 17.1
06:30 1023 30.21 852 25.16 -6.6 20.2 89 -8.1 17.3
06:35 1023 30.21 852 25.16 -6.5 20.3 88 -8.1 17.4
06:40 1023 30.21 852 25.16 -6.4 20.4 89 -8 17.7
06:45 1023 30.21 852 25.16 -6.4 20.4 88 -8.1 17.5
06:50 1023 30.21 852 25.16 -6.8 19.7 90 -8.3 17.1
06:55 1023 30.21 852 25.16 -7 19.4 90 -8.4 16.9
07:00 1023 30.21 852 25.16 -7.1 19.3 90 -8.4 16.9
07:05 1023 30.21 852 25.16 -7.1 19.1 91 -8.4 16.8
07:10 1023 30.21 852 25.16 -7.1 19.2 91 -8.4 16.9
07:15 1023 30.21 852 25.16 -7.1 19.2 91 -8.4 16.8
07:20 1023 30.21 852 25.16 -7.1 19.2 90 -8.4 16.8
07:25 1023 30.21 852 25.16 -7.1 19.3 90 -8.4 16.9
07:30 1023 30.21 852 25.16 -7.1 19.2 91 -8.4 16.9
07:35 1023 30.21 852 25.16 -7.1 19.2 91 -8.4 17
07:40 1023 30.21 852 25.16 -7 19.4 91 -8.3 17
07:45 1023 30.21 852 25.16 -7 19.4 91 -8.3 17.1
07:50 1023 30.21 852 25.16 -7 19.4 90 -8.3 17
07:55 1023 30.21 852 25.16 -7 19.5 89 -8.4 16.9
08:00 1023 30.21 852 25.16 -7 19.4 88 -8.6 16.5
08:05 1023 30.21 852 25.16 -7.1 19.3 89 -8.6 16.5
08:10 1023 30.21 852 25.16 -7.1 19.3 88 -8.7 16.4
08:15 1023 30.21 852 25.16 -7.1 19.2 87 -9 15.8
08:20 1023 30.21 852 25.16 -7.3 18.9 87 -9 15.8
08:25 1023 30.21 852 25.16 -7.3 18.9 87 -9.1 15.6
08:30 1023 30.21 852 25.16 -7.3 18.9 86 -9.2 15.5
08:35 1023 30.21 852 25.16 -7.3 18.9 86 -9.2 15.5
08:40 1023 30.21 852 25.16 -7.3 18.8 87 -9.1 15.6
08:45 1023 30.21 852 25.16 -7.3 18.9 87 -9.1 15.5
08:50 1023 30.21 852 25.16 -7.3 18.9 86 -9.2 15.4
08:55 1023 30.21 852 25.16 -7.2 19 87 -9 15.8
09:00 1023 30.21 852 25.16 -7.2 19.1 87 -8.9 15.9
09:05 1023 30.21 852 25.16 -7.2 19.1 86 -9.2 15.4
09:10 1023 30.21 852 25.16 -7.1 19.1 85 -9.3 15.3
09:15 1023 30.21 852 25.16 -7.2 19 86 -9.2 15.4
09:20 1023 30.21 852 25.16 -7.2 19 85 -9.3 15.2
09:25 1023 30.21 852 25.16 -7.2 19.1 82 -9.7 14.5
09:30 1023 30.21 852 25.16 -7.2 19 82 -9.8 14.4
09:35 1023 30.21 852 25.16 -7.2 19.1 82 -9.7 14.5
09:40 1023 30.21 852 25.16 -7.1 19.3 81 -9.7 14.5
09:45 1023 30.21 852 25.16 -6.8 19.7 81 -9.7 14.6
09:50 1023 30.21 852 25.16 -6.9 19.6 77 -10.2 13.6
09:55 1023 30.21 852 25.16 -7 19.4 78 -10.3 13.5
10:00 1023 30.21 852 25.16 -6.7 19.9 79 -9.8 14.4
10:05 1023 30.21 852 25.16 -6.3 20.6 75 -10 14
10:10 1023 30.21 852 25.16 -6.2 20.8 76 -9.9 14.2
10:15 1023 30.21 852 25.16 -6.2 20.9 79 -9.3 15.2
10:20 1023 30.21 852 25.16 -5.8 21.6 78 -9.1 15.7
10:25 1023 30.21 852 25.16 -5.5 22 73 -9.7 14.6
10:30 1023 30.21 852 25.16 -6 21.1 74 -10 13.9
10:35 1023 30.21 852 25.16 -6.1 21 75 -9.9 14.1
10:40 1023 30.21 852 25.16 -6.4 20.6 74 -10.3 13.5
10:45 1023 30.21 852 25.16 -6.5 20.4 75 -10.2 13.6
10:50 1023 30.21 852 25.16 -6 21.2 73 -10.1 13.8
10:55 1023 30.21 852 25.16 -6 21.1 73 -10 13.9
11:00 1023 30.21 852 25.16 -6 21.3 75 -9.7 14.5
11:05 1023 30.21 852 25.16 -5.7 21.8 74 -9.6 14.8
11:10 1023 30.21 852 25.16 -5.1 22.8 73 -9.2 15.4
11:15 1023 30.21 852 25.16 -4.7 23.6 72 -9 15.8
11:20 1023 30.21 852 25.16 -4.3 24.3 70 -9 15.9
11:25 1023 30.21 852 25.16 -4 24.8 69 -8.9 16
11:30 1023 30.21 852 25.16 -4.1 24.5 72 -8.5 16.6
11:35 1023 30.21 852 25.16 -4 24.8 70 -8.6 16.5
11:40 1023 30.21 852 25.16 -3.7 25.4 70 -8.3 17
11:45 1023 30.21 852 25.16 -3.6 25.5 70 -8.3 17.1
11:50 1023 30.21 852 25.16 -3.6 25.4 68 -8.7 16.4
11:55 1023 30.21 852 25.16 -3.6 25.5 70 -8.3 17
12:00 1023 30.21 852 25.16 -3.6 25.5 67 -8.8 16.2
12:05 1023 30.21 852 25.16 -3.5 25.6 68 -8.6 16.4
12:10 1023 30.21 852 25.16 -3.5 25.7 66 -9 15.9
12:15 1023 30.21 852 25.16 -3.3 26.1 68 -8.4 16.8
12:20 1023 30.21 852 25.16 -2.5 27.6 64 -8.5 16.8
12:25 1022 30.18 852 25.16 -2.6 27.3 64 -8.6 16.6
12:30 1022 30.18 852 25.16 -3.2 26.3 66 -8.6 16.5
12:35 1022 30.18 852 25.16 -2.9 26.8 64 -8.7 16.3
12:40 1022 30.18 852 25.16 -2.5 27.4 66 -8.1 17.4
12:45 1022 30.18 852 25.16 -2.4 27.7 64 -8.3 17.1
12:50 1022 30.18 852 25.16 -2.6 27.3 66 -8.1 17.3
12:55 1022 30.18 852 25.16 -2.7 27.2 66 -8.2 17.3
13:00 1022 30.18 852 25.16 -2.6 27.4 66 -8.1 17.5
13:05 1022 30.18 852 25.16 -2.6 27.4 66 -8.1 17.5
13:10 1022 30.18 851 25.13 -2.5 27.5 65 -8.3 17.1
13:15 1022 30.18 851 25.13 -2.4 27.6 65 -8.2 17.3
13:20 1022 30.18 851 25.13 -2.7 27.2 67 -8 17.6
13:25 1022 30.18 851 25.13 -3.1 26.5 68 -8.2 17.2
13:30 1022 30.18 851 25.13 -3 26.6 66 -8.4 16.8
13:35 1022 30.18 851 25.13 -2.6 27.3 64 -8.4 16.8
13:40 1022 30.18 851 25.13 -2.4 27.7 64 -8.3 17
13:45 1022 30.18 851 25.13 -2.5 27.5 64 -8.4 16.9
13:50 1022 30.18 851 25.13 -2.6 27.4 63 -8.6 16.5
13:55 1022 30.18 851 25.13 -2.4 27.7 63 -8.4 16.8
14:00 1022 30.18 851 25.13 -2.2 28 62 -8.5 16.8
14:05 1022 30.18 851 25.13 -2 28.4 63 -8.2 17.3
14:10 1022 30.18 851 25.13 -1.9 28.6 60 -8.5 16.6
14:15 1022 30.18 851 25.13 -1.8 28.7 61 -8.5 16.7
14:20 1021 30.15 851 25.13 -1.6 29.1 58 -8.7 16.3
14:25 1021 30.15 851 25.13 -1.5 29.2 60 -8.3 17
14:30 1021 30.15 851 25.13 -1.8 28.7 62 -8.1 17.4
14:35 1021 30.15 851 25.13 -2 28.4 62 -8.4 16.9
14:40 1021 30.15 851 25.13 -2.2 28 64 -8.2 17.2
14:45 1021 30.15 850 25.1 -2.6 27.4 64 -8.5 16.8
14:50 1021 30.15 850 25.1 -2.4 27.6 63 -8.6 16.5
14:55 1021 30.15 850 25.1 -2.6 27.4 65 -8.3 17.1
15:00 1021 30.15 850 25.1 -2.3 27.8 63 -8.4 16.9
15:05 1021 30.15 850 25.1 -2 28.4 63 -8.2 17.3
15:10 1021 30.15 850 25.1 -1.8 28.7 62 -8.2 17.2
15:15 1021 30.15 850 25.1 -1.8 28.8 62 -8.1 17.4
15:20 1021 30.15 850 25.1 -1.7 29 62 -8.1 17.4
15:25 1021 30.15 850 25.1 -1.8 28.8 63 -8 17.6
15:30 1021 30.15 851 25.13 -1.9 28.6 62 -8.3 17.1
15:35 1021 30.15 851 25.13 -2.2 28.1 64 -8.1 17.4
15:40 1021 30.15 851 25.13 -2.4 27.7 65 -8.1 17.4
15:45 1021 30.15 851 25.13 -2.2 28.1 63 -8.3 17.1
15:50 1021 30.15 850 25.1 -2.1 28.3 62 -8.5 16.7
15:55 1021 30.15 851 25.13 -2 28.5 64 -7.9 17.7
16:00 1021 30.15 851 25.13 -2 28.4 62 -8.2 17.2
16:05 1021 30.15 851 25.13 -1.7 29 61 -8.3 17.1
16:10 1021 30.15 851 25.13 -1.8 28.8 63 -8 17.6
16:15 1021 30.15 851 25.13 -2.3 27.9 63 -8.4 16.8
16:20 1022 30.18 851 25.13 -1.9 28.6 62 -8.3 17
16:25 1022 30.18 851 25.13 -1.8 28.7 61 -8.4 16.9
16:30 1022 30.18 851 25.13 -2.6 27.3 67 -8 17.6
16:35 1022 30.18 851 25.13 -3.2 26.3 67 -8.5 16.7
16:40 1022 30.18 851 25.13 -3.4 26 67 -8.6 16.6
16:45 1022 30.18 851 25.13 -3.2 26.2 67 -8.5 16.7
16:50 1022 30.18 851 25.13 -3.3 26 68 -8.3 17
16:55 1022 30.18 851 25.13 -3.4 25.8 68 -8.5 16.6
17:00 1022 30.18 851 25.13 -3.3 26 68 -8.5 16.7
17:05 1022 30.18 851 25.13 -3.6 25.5 69 -8.6 16.6
17:10 1022 30.18 851 25.13 -3.9 25 70 -8.6 16.4
17:15 1022 30.18 851 25.13 -4.2 24.5 71 -8.7 16.3
17:20 1022 30.18 851 25.13 -4.1 24.7 71 -8.6 16.4
17:25 1022 30.18 851 25.13 -4.4 24.1 73 -8.5 16.7
17:30 1022 30.18 851 25.13 -5.2 22.7 76 -8.7 16.4
17:35 1022 30.18 851 25.13 -5.4 22.3 77 -8.9 16
17:40 1022 30.18 851 25.13 -5.7 21.8 80 -8.6 16.5
17:45 1022 30.18 851 25.13 -5.9 21.4 80 -8.9 16.1
17:50 1022 30.18 851 25.13 -6.2 20.9 81 -9 15.9
17:55 1021 30.15 851 25.13 -6.3 20.7 80 -9.2 15.5
18:00 1021 30.15 851 25.13 -6.3 20.6 80 -9.2 15.5
18:05 1021 30.15 851 25.13 -6.3 20.6 81 -9.1 15.7
18:10 1021 30.15 851 25.13 -6.6 20.1 82 -9.1 15.5
18:15 1021 30.15 851 25.13 -6.7 20 83 -9.2 15.5
18:20 1021 30.15 850 25.1 -6.7 19.9 82 -9.2 15.4
18:25 1021 30.15 850 25.1 -7.1 19.3 83 -9.5 14.9
18:30 1021 30.15 850 25.1 -7.4 18.7 86 -9.4 15.2
18:35 1021 30.15 850 25.1 -7.2 19.1 85 -9.3 15.3
18:40 1021 30.15 850 25.1 -7.3 18.9 85 -9.4 15.1
18:45 1021 30.15 850 25.1 -7.4 18.7 86 -9.4 15.1
18:50 1021 30.15 850 25.1 -7.4 18.8 84 -9.6 14.8
18:55 1021 30.15 850 25.1 -7.6 18.3 84 -9.8 14.3
19:00 1021 30.15 850 25.1 -7.9 17.7 87 -9.7 14.5
19:05 1021 30.15 850 25.1 -7.7 18.1 86 -9.7 14.5
19:10 1021 30.15 850 25.1 -7.8 18.1 86 -9.8 14.4
19:15 1021 30.15 850 25.1 -7.7 18.2 86 -9.6 14.7
19:20 1020 30.12 850 25.1 -7.4 18.7 86 -9.4 15.1
19:25 1020 30.12 850 25.1 -7.5 18.5 85 -9.7 14.6
19:30 1020 30.12 850 25.1 -7.8 18 87 -9.6 14.7
19:35 1020 30.12 849 25.07 -7.8 18 85 -9.9 14.1
19:40 1020 30.12 850 25.1 -8.2 17.2 85 -10.2 13.6
19:45 1020 30.12 849 25.07 -8.3 17.1 85 -10.4 13.2
19:50 1020 30.12 849 25.07 -7.8 17.9 83 -10.2 13.6
19:55 1020 30.12 849 25.07 -7.9 17.9 84 -10.1 13.8
20:00 1020 30.12 849 25.07 -7.7 18.1 83 -10.1 13.8
20:05 1020 30.12 850 25.1 -7.8 18 85 -9.9 14.1
20:10 1020 30.12 850 25.1 -7.8 18.1 83 -10.2 13.7
20:15 1020 30.12 850 25.1 -7.8 18 83 -10.2 13.7
20:20 1020 30.12 850 25.1 -8 17.7 84 -10.2 13.7
20:25 1020 30.12 850 25.1 -8 17.7 84 -10.2 13.6
20:30 1020 30.12 850 25.1 -7.9 17.9 81 -10.5 13
20:35 1020 30.12 850 25.1 -8.3 17 81 -11 12.2
20:40 1020 30.12 850 25.1 -8.7 16.4 88 -10.3 13.4
20:45 1020 30.12 850 25.1 -8.3 17.1 85 -10.4 13.3
20:50 1020 30.12 850 25.1 -8.1 17.4 85 -10.3 13.5
20:55 1020 30.12 850 25.1 -7.7 18.2 85 -9.7 14.5
21:00 1020 30.12 850 25.1 -8 17.7 89 -9.5 14.9
21:05 1020 30.12 849 25.07 -7.8 17.9 83 -10.3 13.5
21:10 1020 30.12 849 25.07 -8.3 17.1 87 -10.1 13.8
21:15 1020 30.12 849 25.07 -8.1 17.3 85 -10.2 13.6
21:20 1020 30.12 849 25.07 -8.6 16.6 85 -10.6 13
21:25 1020 30.12 849 25.07 -8.2 17.3 88 -9.8 14.3
21:30 1020 30.12 849 25.07 -7.4 18.8 82 -9.9 14.1
21:35 1020 30.12 849 25.07 -8.4 16.9 85 -10.4 13.3
21:40 1020 30.12 849 25.07 -9 15.9 88 -10.5 13
21:45 1020 30.12 849 25.07 -8.8 16.2 88 -10.4 13.2
21:50 1020 30.12 849 25.07 -8.6 16.6 87 -10.3 13.4
21:55 1020 30.12 849 25.07 -8.5 16.7 87 -10.3 13.5
22:00 1020 30.12 849 25.07 -8.7 16.4 88 -10.3 13.4
22:05 1020 30.12 849 25.07 -8.6 16.6 88 -10.3 13.5
22:10 1020 30.12 849 25.07 -8.3 17.1 85 -10.4 13.3
22:15 1020 30.12 849 25.07 -8.5 16.8 85 -10.5 13.1
22:20 1020 30.12 849 25.07 -8.9 15.9 88 -10.6 13
22:25 1020 30.12 849 25.07 -8.6 16.5 87 -10.3 13.4
22:30 1020 30.12 849 25.07 -8.2 17.2 82 -10.7 12.7
22:35 1020 30.12 849 25.07 -8.9 16 85 -10.9 12.3
22:40 1020 30.12 849 25.07 -9.2 15.5 84 -11.3 11.6
22:45 1020 30.12 849 25.07 -9.2 15.5 83 -11.6 11.2
22:50 1020 30.12 849 25.07 -9.6 14.7 84 -11.9 10.6
22:55 1020 30.12 849 25.07 -9.6 14.8 86 -11.5 11.4
23:00 1020 30.12 849 25.07 -9.3 15.2 86 -11.3 11.7
23:05 1020 30.12 849 25.07 -9.5 14.9 87 -11.3 11.7
23:10 1020 30.12 849 25.07 -9 15.8 85 -11 12.1
23:15 1020 30.12 849 25.07 -9.3 15.2 85 -11.4 11.5
23:20 1020 30.12 849 25.07 -9.4 15 88 -11.1 12
23:25 1020 30.12 849 25.07 -9.2 15.5 85 -11.2 11.8
23:30 1020 30.12 849 25.07 -9.3 15.3 88 -11 12.3
23:35 1020 30.12 849 25.07 -9.1 15.6 85 -11.2 11.9
23:40 1020 30.12 849 25.07 -9.3 15.2 86 -11.2 11.8
23:45 1020 30.12 849 25.07 -9.2 15.5 86 -11.1 12.1
23:50 1020 30.12 849 25.07 -9.1 15.6 87 -11 12.2
23:55 1020 30.12 849 25.07 -8.9 15.9 87 -10.8 12.6
24:00 1020 30.12 849 25.07 -8.9 15.9 87 -10.7 12.7